sensor_id;sensor_type;location;lat;lon;timestamp;pressure;altitude;pressure_sealevel;temperature;humidity
55315;BME280;41619;42.816;23.226;2022-09-27T00:01:54;94596.47;;;14.65;81.90
55315;BME280;41619;42.816;23.226;2022-09-27T00:04:19;94604.75;;;14.65;81.82
55315;BME280;41619;42.816;23.226;2022-09-27T00:06:45;94614.56;;;14.66;82.11
55315;BME280;41619;42.816;23.226;2022-09-27T00:09:10;94609.06;;;14.66;82.08
55315;BME280;41619;42.816;23.226;2022-09-27T00:11:38;94620.06;;;14.66;82.23
55315;BME280;41619;42.816;23.226;2022-09-27T00:14:05;94622.41;;;14.68;82.07
55315;BME280;41619;42.816;23.226;2022-09-27T00:16:34;94623.97;;;14.69;82.28
55315;BME280;41619;42.816;23.226;2022-09-27T00:19:02;94633.03;;;14.69;82.32
55315;BME280;41619;42.816;23.226;2022-09-27T00:21:28;94635.81;;;14.69;82.26
55315;BME280;41619;42.816;23.226;2022-09-27T00:23:55;94633.03;;;14.69;82.14
55315;BME280;41619;42.816;23.226;2022-09-27T00:26:21;94626.34;;;14.67;82.50
55315;BME280;41619;42.816;23.226;2022-09-27T00:28:47;94631.44;;;14.68;82.57
55315;BME280;41619;42.816;23.226;2022-09-27T00:31:24;94620.84;;;14.67;82.65
55315;BME280;41619;42.816;23.226;2022-09-27T00:33:52;94609.09;;;14.63;82.57
55315;BME280;41619;42.816;23.226;2022-09-27T00:36:18;94606.75;;;14.61;82.44
55315;BME280;41619;42.816;23.226;2022-09-27T00:38:45;94608.31;;;14.62;82.62
55315;BME280;41619;42.816;23.226;2022-09-27T00:41:22;94612.63;;;14.63;82.78
55315;BME280;41619;42.816;23.226;2022-09-27T00:43:51;94597.31;;;14.62;82.59
55315;BME280;41619;42.816;23.226;2022-09-27T00:49:22;94585.94;;;14.60;82.99
55315;BME280;41619;42.816;23.226;2022-09-27T00:51:47;94584.38;;;14.59;82.76
55315;BME280;41619;42.816;23.226;2022-09-27T00:54:16;94587.13;;;14.59;83.19
55315;BME280;41619;42.816;23.226;2022-09-27T00:56:44;94585.16;;;14.60;82.98
55315;BME280;41619;42.816;23.226;2022-09-27T00:59:18;94579.63;;;14.60;83.20
55315;BME280;41619;42.816;23.226;2022-09-27T01:01:45;94575.28;;;14.62;83.38
55315;BME280;41619;42.816;23.226;2022-09-27T01:04:12;94568.56;;;14.63;83.43
55315;BME280;41619;42.816;23.226;2022-09-27T01:06:39;94563.06;;;14.63;83.25
55315;BME280;41619;42.816;23.226;2022-09-27T01:09:06;94559.53;;;14.63;83.31
55315;BME280;41619;42.816;23.226;2022-09-27T01:17:46;94568.22;;;14.61;83.59
55315;BME280;41619;42.816;23.226;2022-09-27T01:28:42;94543.38;;;14.65;83.57
55315;BME280;41619;42.816;23.226;2022-09-27T01:34:34;94545.75;;;14.63;83.80
55315;BME280;41619;42.816;23.226;2022-09-27T01:37:36;94537.91;;;14.61;83.58
55315;BME280;41619;42.816;23.226;2022-09-27T01:40:21;94536.72;;;14.62;83.72
55315;BME280;41619;42.816;23.226;2022-09-27T01:43:08;94544.56;;;14.64;83.89
55315;BME280;41619;42.816;23.226;2022-09-27T01:45:53;94548.53;;;14.63;83.81
55315;BME280;41619;42.816;23.226;2022-09-27T01:48:26;94545.75;;;14.63;83.99
55315;BME280;41619;42.816;23.226;2022-09-27T01:53:30;94553.25;;;14.62;83.95
55315;BME280;41619;42.816;23.226;2022-09-27T01:55:59;94552.09;;;14.60;83.78
55315;BME280;41619;42.816;23.226;2022-09-27T01:58:35;94547.13;;;14.51;83.95
55315;BME280;41619;42.816;23.226;2022-09-27T02:01:03;94534.59;;;14.43;83.73
55315;BME280;41619;42.816;23.226;2022-09-27T02:03:33;94531.50;;;14.37;83.81
55315;BME280;41619;42.816;23.226;2022-09-27T02:06:08;94529.22;;;14.32;83.88
55315;BME280;41619;42.816;23.226;2022-09-27T02:08:58;94524.16;;;14.27;84.34
55315;BME280;41619;42.816;23.226;2022-09-27T02:11:26;94519.84;;;14.26;84.13
55315;BME280;41619;42.816;23.226;2022-09-27T02:14:12;94529.25;;;14.29;84.23
55315;BME280;41619;42.816;23.226;2022-09-27T02:16:59;94520.97;;;14.29;84.26
55315;BME280;41619;42.816;23.226;2022-09-27T02:19:53;94522.94;;;14.32;84.48
55315;BME280;41619;42.816;23.226;2022-09-27T02:22:49;94513.88;;;14.31;84.47
55315;BME280;41619;42.816;23.226;2022-09-27T02:28:07;94498.19;;;14.28;84.44
55315;BME280;41619;42.816;23.226;2022-09-27T02:30:40;94501.34;;;14.27;84.64
55315;BME280;41619;42.816;23.226;2022-09-27T02:33:05;94494.28;;;14.25;84.39
55315;BME280;41619;42.816;23.226;2022-09-27T02:35:32;94504.16;;;14.23;84.28
55315;BME280;41619;42.816;23.226;2022-09-27T02:37:58;94504.94;;;14.23;84.39
55315;BME280;41619;42.816;23.226;2022-09-27T02:40:28;94497.09;;;14.22;84.72
55315;BME280;41619;42.816;23.226;2022-09-27T02:42:54;94495.91;;;14.23;84.59
55315;BME280;41619;42.816;23.226;2022-09-27T02:45:20;94506.91;;;14.23;84.59
55315;BME280;41619;42.816;23.226;2022-09-27T03:01:40;94482.59;;;14.18;84.71
55315;BME280;41619;42.816;23.226;2022-09-27T03:04:16;94487.31;;;14.17;84.28
55315;BME280;41619;42.816;23.226;2022-09-27T03:06:45;94483.78;;;14.17;84.57
55315;BME280;41619;42.816;23.226;2022-09-27T03:09:23;94467.28;;;14.17;84.64
55315;BME280;41619;42.816;23.226;2022-09-27T03:11:49;94463.75;;;14.16;84.91
55315;BME280;41619;42.816;23.226;2022-09-27T03:14:15;94458.25;;;14.16;84.82
55315;BME280;41619;42.816;23.226;2022-09-27T03:16:41;94451.19;;;14.15;84.93
55315;BME280;41619;42.816;23.226;2022-09-27T03:19:08;94449.22;;;14.16;85.14
55315;BME280;41619;42.816;23.226;2022-09-27T03:21:33;94455.50;;;14.16;84.86
55315;BME280;41619;42.816;23.226;2022-09-27T03:23:59;94453.53;;;14.17;85.10
55315;BME280;41619;42.816;23.226;2022-09-27T03:26:25;94446.06;;;14.17;85.05
55315;BME280;41619;42.816;23.226;2022-09-27T03:28:50;94440.91;;;14.19;84.94
55315;BME280;41619;42.816;23.226;2022-09-27T03:31:16;94443.28;;;14.17;85.06
55315;BME280;41619;42.816;23.226;2022-09-27T03:33:41;94444.84;;;14.18;85.11
55315;BME280;41619;42.816;23.226;2022-09-27T03:36:06;94447.59;;;14.18;85.54
55315;BME280;41619;42.816;23.226;2022-09-27T03:38:32;94440.13;;;14.19;85.11
55315;BME280;41619;42.816;23.226;2022-09-27T03:40:57;94433.84;;;14.18;85.40
55315;BME280;41619;42.816;23.226;2022-09-27T03:43:23;94436.19;;;14.20;85.17
55315;BME280;41619;42.816;23.226;2022-09-27T03:45:49;94430.31;;;14.18;85.14
55315;BME280;41619;42.816;23.226;2022-09-27T03:48:15;94420.88;;;14.19;85.58
55315;BME280;41619;42.816;23.226;2022-09-27T03:50:40;94425.59;;;14.18;85.59
55315;BME280;41619;42.816;23.226;2022-09-27T03:53:06;94430.72;;;14.16;85.42
55315;BME280;41619;42.816;23.226;2022-09-27T03:55:32;94434.25;;;14.17;85.65
55315;BME280;41619;42.816;23.226;2022-09-27T03:57:57;94443.72;;;14.16;85.59
55315;BME280;41619;42.816;23.226;2022-09-27T04:00:23;94444.13;;;14.14;85.56
55315;BME280;41619;42.816;23.226;2022-09-27T04:02:49;94433.13;;;14.14;85.59
55315;BME280;41619;42.816;23.226;2022-09-27T04:05:15;94431.94;;;14.15;85.48
55315;BME280;41619;42.816;23.226;2022-09-27T04:07:45;94445.69;;;14.15;85.46
55315;BME280;41619;42.816;23.226;2022-09-27T04:10:11;94446.09;;;14.14;85.61
55315;BME280;41619;42.816;23.226;2022-09-27T04:12:39;94443.34;;;14.14;85.37
55315;BME280;41619;42.816;23.226;2022-09-27T04:15:05;94442.56;;;14.13;85.38
55315;BME280;41619;42.816;23.226;2022-09-27T04:17:32;94441.75;;;14.13;85.43
55315;BME280;41619;42.816;23.226;2022-09-27T04:19:57;94437.44;;;14.12;85.80
55315;BME280;41619;42.816;23.226;2022-09-27T04:22:22;94437.88;;;14.10;85.66
55315;BME280;41619;42.816;23.226;2022-09-27T04:24:48;94434.34;;;14.10;85.69
55315;BME280;41619;42.816;23.226;2022-09-27T04:27:13;94438.66;;;14.11;85.93
55315;BME280;41619;42.816;23.226;2022-09-27T04:29:39;94441.81;;;14.09;85.66
55315;BME280;41619;42.816;23.226;2022-09-27T04:32:07;94441.41;;;14.11;85.55
55315;BME280;41619;42.816;23.226;2022-09-27T04:34:32;94438.22;;;14.12;85.61
55315;BME280;41619;42.816;23.226;2022-09-27T04:37:16;94440.59;;;14.14;85.58
55315;BME280;41619;42.816;23.226;2022-09-27T04:39:42;94444.91;;;14.15;85.85
55315;BME280;41619;42.816;23.226;2022-09-27T04:42:07;94431.94;;;14.15;85.70
55315;BME280;41619;42.816;23.226;2022-09-27T04:44:33;94422.47;;;14.16;85.84
55315;BME280;41619;42.816;23.226;2022-09-27T04:46:59;94422.47;;;14.16;85.65
55315;BME280;41619;42.816;23.226;2022-09-27T04:49:24;94435.81;;;14.18;85.79
55315;BME280;41619;42.816;23.226;2022-09-27T04:51:50;94448.03;;;14.17;85.52
55315;BME280;41619;42.816;23.226;2022-09-27T04:54:15;94443.34;;;14.14;85.57
55315;BME280;41619;42.816;23.226;2022-09-27T04:56:40;94438.22;;;14.16;85.87
55315;BME280;41619;42.816;23.226;2022-09-27T04:59:08;94446.41;;;14.19;85.96
55315;BME280;41619;42.816;23.226;2022-09-27T05:01:33;94439.72;;;14.20;85.69
55315;BME280;41619;42.816;23.226;2022-09-27T05:03:59;94435.00;;;14.21;85.96
55315;BME280;41619;42.816;23.226;2022-09-27T05:06:24;94427.88;;;14.23;85.57
55315;BME280;41619;42.816;23.226;2022-09-27T05:08:50;94430.22;;;14.25;86.05
55315;BME280;41619;42.816;23.226;2022-09-27T05:11:15;94418.44;;;14.24;85.93
55315;BME280;41619;42.816;23.226;2022-09-27T05:13:41;94415.69;;;14.24;85.78
55315;BME280;41619;42.816;23.226;2022-09-27T05:16:06;94429.03;;;14.26;85.65
55315;BME280;41619;42.816;23.226;2022-09-27T05:18:32;94423.09;;;14.28;85.60
55315;BME280;41619;42.816;23.226;2022-09-27T05:20:58;94419.50;;;14.31;85.58
55315;BME280;41619;42.816;23.226;2022-09-27T05:23:25;94414.41;;;14.33;85.73
55315;BME280;41619;42.816;23.226;2022-09-27T05:25:50;94399.44;;;14.34;85.90
55315;BME280;41619;42.816;23.226;2022-09-27T05:28:19;94395.84;;;14.37;85.92
55315;BME280;41619;42.816;23.226;2022-09-27T05:30:44;94391.50;;;14.39;85.98
55315;BME280;41619;42.816;23.226;2022-09-27T05:33:10;94385.56;;;14.41;86.14
55315;BME280;41619;42.816;23.226;2022-09-27T05:35:35;94385.13;;;14.46;85.64
55315;BME280;41619;42.816;23.226;2022-09-27T05:38:01;94392.97;;;14.47;85.53
55315;BME280;41619;42.816;23.226;2022-09-27T05:40:27;94408.28;;;14.48;85.93
55315;BME280;41619;42.816;23.226;2022-09-27T05:42:54;94405.94;;;14.50;86.09
55315;BME280;41619;42.816;23.226;2022-09-27T05:45:20;94406.28;;;14.52;86.07
55315;BME280;41619;42.816;23.226;2022-09-27T05:47:57;94390.13;;;14.54;85.79
55315;BME280;41619;42.816;23.226;2022-09-27T05:50:28;94387.72;;;14.57;85.97
55315;BME280;41619;42.816;23.226;2022-09-27T05:52:54;94386.53;;;14.58;85.88
55315;BME280;41619;42.816;23.226;2022-09-27T05:55:20;94401.84;;;14.59;85.63
55315;BME280;41619;42.816;23.226;2022-09-27T06:00:20;94405.03;;;14.57;85.52
55315;BME280;41619;42.816;23.226;2022-09-27T06:02:55;94399.94;;;14.56;85.38
55315;BME280;41619;42.816;23.226;2022-09-27T06:05:22;94405.03;;;14.57;85.47
55315;BME280;41619;42.816;23.226;2022-09-27T06:07:47;94400.66;;;14.60;85.41
55315;BME280;41619;42.816;23.226;2022-09-27T06:10:14;94408.44;;;14.65;85.52
55315;BME280;41619;42.816;23.226;2022-09-27T06:12:40;94411.56;;;14.67;85.30
55315;BME280;41619;42.816;23.226;2022-09-27T06:15:06;94401.31;;;14.67;85.65
55315;BME280;41619;42.816;23.226;2022-09-27T06:17:35;94417.44;;;14.69;85.41
55315;BME280;41619;42.816;23.226;2022-09-27T06:20:01;94406.81;;;14.71;85.66
55315;BME280;41619;42.816;23.226;2022-09-27T06:22:27;94407.56;;;14.71;85.60
55315;BME280;41619;42.816;23.226;2022-09-27T06:24:52;94406.41;;;14.69;85.45
55315;BME280;41619;42.816;23.226;2022-09-27T06:27:17;94413.91;;;14.68;85.53
55315;BME280;41619;42.816;23.226;2022-09-27T06:29:43;94414.31;;;14.67;85.53
55315;BME280;41619;42.816;23.226;2022-09-27T06:32:09;94418.25;;;14.66;85.29
55315;BME280;41619;42.816;23.226;2022-09-27T06:34:34;94410.41;;;14.64;85.47
55315;BME280;41619;42.816;23.226;2022-09-27T06:37:00;94420.28;;;14.62;85.36
55315;BME280;41619;42.816;23.226;2022-09-27T06:39:25;94413.22;;;14.61;85.32
55315;BME280;41619;42.816;23.226;2022-09-27T06:41:54;94405.38;;;14.59;85.12
55315;BME280;41619;42.816;23.226;2022-09-27T06:44:24;94416.81;;;14.58;85.61
55315;BME280;41619;42.816;23.226;2022-09-27T06:46:52;94417.25;;;14.56;85.32
55315;BME280;41619;42.816;23.226;2022-09-27T06:49:20;94417.66;;;14.54;85.26
55315;BME280;41619;42.816;23.226;2022-09-27T06:51:47;94420.47;;;14.51;85.48
55315;BME280;41619;42.816;23.226;2022-09-27T06:54:13;94420.84;;;14.49;85.34
55315;BME280;41619;42.816;23.226;2022-09-27T06:56:38;94415.78;;;14.48;85.30
55315;BME280;41619;42.816;23.226;2022-09-27T06:59:04;94430.69;;;14.50;85.42
55315;BME280;41619;42.816;23.226;2022-09-27T07:01:47;94441.66;;;14.54;85.51
55315;BME280;41619;42.816;23.226;2022-09-27T07:04:16;94447.09;;;14.58;85.56
55315;BME280;41619;42.816;23.226;2022-09-27T07:06:43;94453.28;;;14.65;85.60
55315;BME280;41619;42.816;23.226;2022-09-27T07:09:08;94458.72;;;14.72;85.36
55315;BME280;41619;42.816;23.226;2022-09-27T07:11:34;94459.78;;;14.78;85.44
55315;BME280;41619;42.816;23.226;2022-09-27T07:14:01;94457.75;;;14.82;85.33
55315;BME280;41619;42.816;23.226;2022-09-27T07:16:29;94445.09;;;14.89;85.49
55315;BME280;41619;42.816;23.226;2022-09-27T07:18:56;94450.53;;;14.92;85.19
55315;BME280;41619;42.816;23.226;2022-09-27T07:21:22;94444.59;;;14.94;85.13
55315;BME280;41619;42.816;23.226;2022-09-27T07:23:48;94435.91;;;14.95;85.45
55315;BME280;41619;42.816;23.226;2022-09-27T07:26:14;94437.84;;;14.98;85.13
55315;BME280;41619;42.816;23.226;2022-09-27T07:28:39;94434.25;;;15.01;85.04
55315;BME280;41619;42.816;23.226;2022-09-27T07:31:09;94428.31;;;15.03;84.99
55315;BME280;41619;42.816;23.226;2022-09-27T07:33:35;94422.38;;;15.04;85.12
55315;BME280;41619;42.816;23.226;2022-09-27T07:36:06;94421.56;;;15.07;84.91
55315;BME280;41619;42.816;23.226;2022-09-27T07:38:32;94417.53;;;15.12;85.16
55315;BME280;41619;42.816;23.226;2022-09-27T07:40:57;94424.91;;;15.19;85.12
55315;BME280;41619;42.816;23.226;2022-09-27T07:43:23;94427.94;;;15.24;85.11
55315;BME280;41619;42.816;23.226;2022-09-27T07:45:48;94431.75;;;15.34;85.19
55315;BME280;41619;42.816;23.226;2022-09-27T07:48:15;94429.19;;;15.43;85.10
55315;BME280;41619;42.816;23.226;2022-09-27T07:50:40;94428.38;;;15.46;84.88
55315;BME280;41619;42.816;23.226;2022-09-27T07:53:06;94439.41;;;15.46;84.85
55315;BME280;41619;42.816;23.226;2022-09-27T07:55:32;94444.50;;;15.48;84.88
55315;BME280;41619;42.816;23.226;2022-09-27T07:58:04;94448.03;;;15.48;84.77
55315;BME280;41619;42.816;23.226;2022-09-27T08:00:31;94453.97;;;15.47;84.70
55315;BME280;41619;42.816;23.226;2022-09-27T08:02:56;94456.72;;;15.47;84.91
55315;BME280;41619;42.816;23.226;2022-09-27T08:05:22;94450.88;;;15.44;84.82
55315;BME280;41619;42.816;23.226;2022-09-27T08:07:53;94444.59;;;15.40;84.78
55315;BME280;41619;42.816;23.226;2022-09-27T08:10:19;94449.41;;;15.36;85.00
55315;BME280;41619;42.816;23.226;2022-09-27T08:12:45;94442.34;;;15.35;84.93
55315;BME280;41619;42.816;23.226;2022-09-27T08:15:10;94430.19;;;15.33;85.02
55315;BME280;41619;42.816;23.226;2022-09-27T08:17:35;94425.09;;;15.31;84.98
55315;BME280;41619;42.816;23.226;2022-09-27T08:20:01;94427.13;;;15.27;85.08
55315;BME280;41619;42.816;23.226;2022-09-27T08:22:29;94419.66;;;15.28;84.97
55315;BME280;41619;42.816;23.226;2022-09-27T08:24:55;94413.78;;;15.26;85.12
55315;BME280;41619;42.816;23.226;2022-09-27T08:27:20;94416.47;;;15.29;85.42
55315;BME280;41619;42.816;23.226;2022-09-27T08:29:46;94418.31;;;15.36;84.80
55315;BME280;41619;42.816;23.226;2022-09-27T08:32:12;94413.41;;;15.47;85.00
55315;BME280;41619;42.816;23.226;2022-09-27T08:34:38;94407.66;;;15.58;85.04
55315;BME280;41619;42.816;23.226;2022-09-27T08:37:04;94403.63;;;15.66;84.93
55315;BME280;41619;42.816;23.226;2022-09-27T08:39:30;94411.75;;;15.73;84.81
55315;BME280;41619;42.816;23.226;2022-09-27T08:50:07;94400.56;;;15.80;84.55
55315;BME280;41619;42.816;23.226;2022-09-27T08:52:39;94391.94;;;15.78;84.48
55315;BME280;41619;42.816;23.226;2022-09-27T08:57:43;94394.78;;;15.74;84.57
55315;BME280;41619;42.816;23.226;2022-09-27T09:00:15;94392.09;;;15.71;84.55
55315;BME280;41619;42.816;23.226;2022-09-27T09:02:40;94399.25;;;15.68;84.70
55315;BME280;41619;42.816;23.226;2022-09-27T09:05:10;94393.38;;;15.66;84.55
55315;BME280;41619;42.816;23.226;2022-09-27T09:25:01;94398.03;;;15.69;84.74
55315;BME280;41619;42.816;23.226;2022-09-27T09:30:39;94385.78;;;15.90;84.56
55315;BME280;41619;42.816;23.226;2022-09-27T09:36:02;94394.50;;;16.09;84.17
55315;BME280;41619;42.816;23.226;2022-09-27T09:38:40;94390.44;;;16.13;84.36
55315;BME280;41619;42.816;23.226;2022-09-27T09:41:18;94387.56;;;16.20;84.19
55315;BME280;41619;42.816;23.226;2022-09-27T09:44:01;94391.69;;;16.28;84.02
55315;BME280;41619;42.816;23.226;2022-09-27T09:46:42;94387.50;;;16.40;84.03
55315;BME280;41619;42.816;23.226;2022-09-27T09:49:25;94378.97;;;16.51;84.11
55315;BME280;41619;42.816;23.226;2022-09-27T09:52:06;94372.00;;;16.62;83.77
55315;BME280;41619;42.816;23.226;2022-09-27T09:55:18;94367.03;;;16.74;83.72
55315;BME280;41619;42.816;23.226;2022-09-27T09:57:53;94378.50;;;16.88;83.40
55315;BME280;41619;42.816;23.226;2022-09-27T10:00:19;94372.22;;;17.04;83.54
55315;BME280;41619;42.816;23.226;2022-09-27T10:02:46;94368.91;;;17.09;83.62
55315;BME280;41619;42.816;23.226;2022-09-27T10:05:15;94371.34;;;17.07;83.58
55315;BME280;41619;42.816;23.226;2022-09-27T10:07:41;94372.66;;;17.03;83.21
55315;BME280;41619;42.816;23.226;2022-09-27T10:10:12;94366.09;;;16.97;83.63
55315;BME280;41619;42.816;23.226;2022-09-27T10:12:38;94367.75;;;16.94;83.45
55315;BME280;41619;42.816;23.226;2022-09-27T10:15:04;94365.81;;;16.91;83.59
55315;BME280;41619;42.816;23.226;2022-09-27T10:17:39;94363.16;;;16.87;83.43
55315;BME280;41619;42.816;23.226;2022-09-27T10:20:07;94360.81;;;16.86;83.20
55315;BME280;41619;42.816;23.226;2022-09-27T10:22:41;94358.47;;;16.84;82.90
55315;BME280;41619;42.816;23.226;2022-09-27T10:25:10;94345.34;;;16.88;83.09
55315;BME280;41619;42.816;23.226;2022-09-27T10:27:47;94344.41;;;16.95;82.99
55315;BME280;41619;42.816;23.226;2022-09-27T10:32:50;94345.19;;;17.12;82.87
55315;BME280;41619;42.816;23.226;2022-09-27T10:37:46;94328.16;;;17.42;82.50
55315;BME280;41619;42.816;23.226;2022-09-27T10:40:27;94323.06;;;17.99;82.55
55315;BME280;41619;42.816;23.226;2022-09-27T10:42:53;94329.47;;;18.63;81.62
55315;BME280;41619;42.816;23.226;2022-09-27T10:45:32;94320.84;;;18.95;80.62
55315;BME280;41619;42.816;23.226;2022-09-27T10:47:59;94316.97;;;19.05;79.30
55315;BME280;41619;42.816;23.226;2022-09-27T10:50:30;94318.84;;;19.09;78.98
55315;BME280;41619;42.816;23.226;2022-09-27T10:55:26;94321.50;;;19.12;78.98
55315;BME280;41619;42.816;23.226;2022-09-27T10:57:53;94315.75;;;19.06;78.43
55315;BME280;41619;42.816;23.226;2022-09-27T11:00:23;94314.97;;;19.06;78.25
55315;BME280;41619;42.816;23.226;2022-09-27T11:03:06;94306.81;;;19.24;78.65
55315;BME280;41619;42.816;23.226;2022-09-27T11:05:37;94284.31;;;19.57;78.20
55315;BME280;41619;42.816;23.226;2022-09-27T11:10:59;94296.63;;;20.00;77.07
55315;BME280;41619;42.816;23.226;2022-09-27T11:13:25;94288.66;;;20.11;76.82
55315;BME280;41619;42.816;23.226;2022-09-27T11:43:08;94242.97;;;21.01;74.69
55315;BME280;41619;42.816;23.226;2022-09-27T11:48:21;94228.56;;;20.94;74.67
55315;BME280;41619;42.816;23.226;2022-09-27T11:50:51;94229.97;;;20.98;74.76
55315;BME280;41619;42.816;23.226;2022-09-27T11:53:38;94224.28;;;21.02;74.76
55315;BME280;41619;42.816;23.226;2022-09-27T12:07:01;94173.84;;;20.54;76.26
55315;BME280;41619;42.816;23.226;2022-09-27T12:09:34;94178.78;;;20.50;76.38
55315;BME280;41619;42.816;23.226;2022-09-27T12:12:04;94180.00;;;20.49;76.38
55315;BME280;41619;42.816;23.226;2022-09-27T12:14:51;94173.38;;;20.55;76.38
55315;BME280;41619;42.816;23.226;2022-09-27T12:17:21;94171.38;;;20.56;76.31
55315;BME280;41619;42.816;23.226;2022-09-27T12:19:53;94162.41;;;20.52;76.29
55315;BME280;41619;42.816;23.226;2022-09-27T12:22:25;94142.47;;;20.44;76.63
55315;BME280;41619;42.816;23.226;2022-09-27T12:24:53;94132.88;;;20.36;76.46
55315;BME280;41619;42.816;23.226;2022-09-27T12:27:29;94142.41;;;20.26;76.86
55315;BME280;41619;42.816;23.226;2022-09-27T12:29:56;94136.53;;;20.15;76.88
55315;BME280;41619;42.816;23.226;2022-09-27T12:32:41;94144.97;;;20.02;77.01
55315;BME280;41619;42.816;23.226;2022-09-27T12:35:17;94144.19;;;19.92;77.00
55315;BME280;41619;42.816;23.226;2022-09-27T12:40:30;94111.16;;;19.54;77.86
